Time;durP1;ratioP1;P1;durP2;ratioP2;P2;SDS_P1;SDS_P2;PMS_P1;PMS_P2;Temp;Humidity;BMP_temperature;BMP_pressure;BME280_temperature;BME280_humidity;BME280_pressure;Samples;Min_cycle;Max_cycle;Signal;HPM_P1;HPM_P2
2023/12/31 00:00:26;;;;;;;13.75;3.80;;;;;;;11.56;68.60;100920.72;5038249;27;96978;-70
2023/12/31 00:02:52;;;;;;;15.23;3.83;;;;;;;11.57;69.15;100919.81;5030515;27;97250;-68
2023/12/31 00:05:20;;;;;;;14.38;3.53;;;;;;;11.63;68.90;100917.84;5035658;27;99246;-68
2023/12/31 00:07:46;;;;;;;11.85;3.63;;;;;;;11.68;68.75;100910.63;5034078;27;97643;-66
2023/12/31 00:10:13;;;;;;;10.48;3.05;;;;;;;11.65;68.77;100916.00;5035701;27;96895;-70
2023/12/31 00:12:39;;;;;;;10.98;2.75;;;;;;;11.58;69.25;100910.94;5034204;27;97043;-69
2023/12/31 00:15:06;;;;;;;12.25;3.00;;;;;;;11.68;68.72;100910.63;5027371;27;99308;-69
2023/12/31 00:17:32;;;;;;;11.35;4.18;;;;;;;11.82;68.58;100911.84;5031208;27;97626;-70
2023/12/31 00:19:59;;;;;;;10.25;3.10;;;;;;;11.70;68.97;100914.06;5027718;27;97771;-70
2023/12/31 00:22:26;;;;;;;13.95;3.25;;;;;;;11.87;68.29;100911.69;5025511;27;98359;-70
2023/12/31 00:24:54;;;;;;;11.65;3.45;;;;;;;11.72;68.74;100901.63;5035169;27;98959;-69
2023/12/31 00:27:20;;;;;;;10.95;3.25;;;;;;;11.88;68.51;100892.22;5034858;27;99078;-69
2023/12/31 00:29:47;;;;;;;9.90;3.00;;;;;;;11.86;68.58;100894.94;5034594;27;97347;-69
2023/12/31 00:32:13;;;;;;;10.32;2.80;;;;;;;11.69;69.02;100897.31;5033333;27;97094;-69
2023/12/31 00:34:40;;;;;;;11.80;2.58;;;;;;;11.78;68.91;100897.00;5042971;27;99302;-68
2023/12/31 00:37:06;;;;;;;12.90;2.78;;;;;;;11.61;69.34;100898.53;5034637;27;101423;-68
2023/12/31 00:39:34;;;;;;;11.38;3.00;;;;;;;11.67;69.66;100887.72;5029133;27;100109;-68
2023/12/31 00:42:00;;;;;;;9.68;3.10;;;;;;;11.74;69.16;100882.16;5026548;27;97280;-69
2023/12/31 00:44:28;;;;;;;15.65;3.53;;;;;;;11.71;69.41;100886.66;5022474;27;98959;-69
2023/12/31 00:46:54;;;;;;;13.95;2.95;;;;;;;11.97;68.38;100884.78;5027287;27;98836;-69
2023/12/31 00:49:21;;;;;;;12.65;2.75;;;;;;;11.82;68.66;100888.00;5023984;27;97035;-69
2023/12/31 00:51:48;;;;;;;11.90;2.42;;;;;;;12.00;68.02;100880.28;5029491;27;96707;-69
2023/12/31 00:54:14;;;;;;;8.55;2.67;;;;;;;11.91;68.55;100884.16;5029054;27;99126;-70
2023/12/31 00:56:42;;;;;;;12.63;3.95;;;;;;;11.94;68.20;100874.31;5026849;27;97629;-69
2023/12/31 00:59:08;;;;;;;8.00;3.10;;;;;;;11.84;68.36;100874.72;5024462;27;96795;-70
2023/12/31 01:01:35;;;;;;;13.00;3.88;;;;;;;11.73;68.89;100869.81;5029171;27;98031;-68
2023/12/31 01:04:01;;;;;;;10.35;3.00;;;;;;;11.72;68.91;100862.78;5031467;27;98900;-68
2023/12/31 01:06:27;;;;;;;14.32;3.95;;;;;;;11.54;69.44;100872.28;5028065;27;98849;-68
2023/12/31 01:08:54;;;;;;;11.80;3.63;;;;;;;11.55;69.70;100873.16;5023459;27;97181;-69
2023/12/31 01:11:21;;;;;;;7.35;2.80;;;;;;;11.59;69.32;100867.69;5021735;27;96782;-68
2023/12/31 01:13:49;;;;;;;11.07;3.00;;;;;;;11.48;70.04;100859.28;5030738;27;98951;-69
2023/12/31 01:16:16;;;;;;;16.67;3.40;;;;;;;11.77;68.72;100866.16;5029346;27;99186;-69
2023/12/31 01:18:43;;;;;;;12.23;2.72;;;;;;;11.36;70.59;100857.06;5030849;27;96868;-70
2023/12/31 01:21:09;;;;;;;10.35;3.33;;;;;;;11.42;70.21;100859.50;5019295;27;96932;-70
2023/12/31 01:23:35;;;;;;;8.70;3.10;;;;;;;11.12;71.23;100865.91;5027896;28;98922;-68
2023/12/31 01:26:02;;;;;;;14.02;2.80;;;;;;;11.30;70.59;100857.31;5023781;27;99047;-68
2023/12/31 01:28:29;;;;;;;13.50;3.20;;;;;;;10.99;71.64;100857.56;5031019;27;96663;-68
2023/12/31 01:30:57;;;;;;;12.05;3.35;;;;;;;11.12;71.41;100853.56;5023555;27;97497;-67
2023/12/31 01:33:23;;;;;;;11.30;3.33;;;;;;;11.21;71.21;100857.66;5025715;27;99025;-68
2023/12/31 01:35:49;;;;;;;9.80;2.85;;;;;;;11.11;71.45;100854.47;5026619;27;99046;-67
2023/12/31 01:38:16;;;;;;;12.00;3.40;;;;;;;11.06;71.51;100863.50;5030742;27;96737;-68
2023/12/31 01:40:52;;;;;;;12.50;2.95;;;;;;;11.08;71.90;100857.25;5021410;27;97406;-67
2023/12/31 01:43:19;;;;;;;10.63;3.33;;;;;;;10.99;72.38;100854.91;5027825;27;99563;-68
2023/12/31 01:45:45;;;;;;;10.57;3.30;;;;;;;11.15;71.21;100850.81;5028027;27;99243;-67
2023/12/31 01:48:14;;;;;;;11.48;3.75;;;;;;;11.12;71.55;100847.41;5029755;27;96837;-69
2023/12/31 01:50:42;;;;;;;10.55;2.97;;;;;;;11.01;71.74;100857.50;5032330;27;96986;-69
2023/12/31 01:53:09;;;;;;;12.02;3.60;;;;;;;10.72;72.91;100851.44;5025469;27;99067;-69
2023/12/31 01:55:36;;;;;;;14.30;2.95;;;;;;;10.83;73.08;100844.94;5030852;27;99574;-69
2023/12/31 01:58:02;;;;;;;10.10;3.30;;;;;;;11.02;72.21;100840.72;5019642;27;98639;-69
2023/12/31 02:00:29;;;;;;;8.73;3.53;;;;;;;10.86;72.83;100836.88;5019615;27;96772;-68
2023/12/31 02:02:59;;;;;;;9.88;3.08;;;;;;;10.82;72.62;100837.94;5023013;27;99876;-69
2023/12/31 02:05:27;;;;;;;11.68;3.45;;;;;;;10.67;73.12;100834.91;5021449;27;98746;-70
2023/12/31 02:07:53;;;;;;;14.40;3.28;;;;;;;10.62;73.27;100823.63;5025028;27;98715;-69
2023/12/31 02:10:20;;;;;;;11.57;3.30;;;;;;;10.57;73.99;100828.19;5016411;27;97004;-68
2023/12/31 02:12:47;;;;;;;12.80;2.90;;;;;;;10.78;73.15;100827.44;5022133;27;98936;-68
2023/12/31 02:15:14;;;;;;;9.60;3.30;;;;;;;10.81;72.96;100822.97;5018673;27;98816;-69
2023/12/31 02:17:40;;;;;;;13.02;3.85;;;;;;;10.72;72.81;100829.44;5023212;27;96972;-69
2023/12/31 02:20:08;;;;;;;10.25;3.25;;;;;;;10.71;73.52;100819.78;5022797;27;96838;-69
2023/12/31 02:22:35;;;;;;;9.77;3.10;;;;;;;10.71;73.34;100820.66;5025324;27;98104;-69
2023/12/31 02:25:05;;;;;;;12.10;3.05;;;;;;;10.67;73.23;100816.41;5018836;27;98828;-68
2023/12/31 02:27:33;;;;;;;13.30;3.60;;;;;;;10.61;73.85;100813.97;5025380;27;96685;-68
2023/12/31 02:30:00;;;;;;;15.52;3.78;;;;;;;10.81;72.57;100820.34;5022876;27;97486;-68
2023/12/31 02:32:26;;;;;;;8.48;3.35;;;;;;;10.66;72.91;100811.16;5019385;27;98687;-69
2023/12/31 02:34:52;;;;;;;19.90;3.63;;;;;;;10.62;73.17;100804.25;5020418;27;98907;-69
2023/12/31 02:37:19;;;;;;;7.60;3.40;;;;;;;10.69;73.32;100801.34;5023410;27;96819;-69
2023/12/31 02:39:45;;;;;;;14.68;3.30;;;;;;;10.62;72.87;100813.06;5025077;27;96777;-69
2023/12/31 02:42:12;;;;;;;10.23;4.32;;;;;;;10.63;73.08;100806.81;5021668;27;99032;-69
2023/12/31 02:44:39;;;;;;;11.18;3.45;;;;;;;10.64;73.08;100802.41;5024118;27;98813;-68
2023/12/31 02:47:07;;;;;;;15.15;3.33;;;;;;;10.60;72.97;100806.09;5030207;27;97296;-67
2023/12/31 02:49:33;;;;;;;8.60;2.92;;;;;;;10.47;73.97;100799.50;5024909;27;96890;-70
2023/12/31 02:52:00;;;;;;;13.88;3.60;;;;;;;10.21;74.27;100795.09;5019268;27;98872;-70
2023/12/31 02:54:26;;;;;;;10.35;2.90;;;;;;;10.41;73.98;100797.94;5027948;27;99121;-68
2023/12/31 02:56:52;;;;;;;12.63;3.15;;;;;;;10.38;73.84;100782.16;5026306;27;96946;-69
2023/12/31 02:59:19;;;;;;;11.18;3.03;;;;;;;10.37;74.16;100788.41;5029667;27;98540;-68
2023/12/31 03:01:46;;;;;;;8.75;2.83;;;;;;;10.50;73.73;100781.75;5029037;27;99326;-68
2023/12/31 03:04:13;;;;;;;11.30;3.40;;;;;;;10.31;74.30;100778.88;5029500;27;98704;-68
2023/12/31 03:06:39;;;;;;;9.98;3.38;;;;;;;10.35;74.45;100777.88;5020832;27;97038;-68
2023/12/31 03:09:06;;;;;;;9.23;2.90;;;;;;;10.34;74.18;100775.28;5025519;27;97101;-68
2023/12/31 03:11:33;;;;;;;8.77;2.83;;;;;;;10.31;74.62;100772.72;5022025;27;98072;-70
2023/12/31 03:13:59;;;;;;;11.05;3.70;;;;;;;10.06;75.59;100772.66;5025979;27;99465;-69
2023/12/31 03:16:26;;;;;;;6.57;3.00;;;;;;;10.18;75.37;100769.63;5022138;27;99212;-69
2023/12/31 03:18:53;;;;;;;13.65;3.40;;;;;;;10.07;75.64;100757.69;5027043;27;98568;-70
2023/12/31 03:21:20;;;;;;;13.55;3.70;;;;;;;10.05;75.45;100760.38;5020463;27;98905;-69
2023/12/31 03:23:46;;;;;;;11.70;3.53;;;;;;;9.99;75.83;100758.78;5025625;27;98926;-69
2023/12/31 03:26:13;;;;;;;11.77;3.20;;;;;;;10.06;75.68;100756.81;5027144;27;96725;-70
2023/12/31 03:28:39;;;;;;;7.82;3.03;;;;;;;9.89;76.21;100757.38;5030539;27;96731;-68
2023/12/31 03:31:05;;;;;;;13.40;3.20;;;;;;;9.99;76.17;100756.16;5028194;27;98858;-68
2023/12/31 03:33:32;;;;;;;9.10;2.88;;;;;;;9.89;76.61;100760.03;5030148;27;99189;-69
2023/12/31 03:36:00;;;;;;;11.30;3.28;;;;;;;10.00;75.84;100752.59;5030331;27;96765;-71
2023/12/31 03:38:26;;;;;;;7.88;2.50;;;;;;;9.95;76.21;100751.91;5025431;27;99997;-71
2023/12/31 03:40:52;;;;;;;11.82;2.70;;;;;;;10.04;75.99;100747.25;5022349;27;98861;-70
2023/12/31 03:43:19;;;;;;;8.57;2.72;;;;;;;10.16;75.54;100746.81;5028939;27;101757;-71
2023/12/31 03:45:46;;;;;;;5.65;2.40;;;;;;;10.13;75.34;100747.78;5030312;27;97334;-69
2023/12/31 03:48:13;;;;;;;15.73;3.65;;;;;;;10.15;75.21;100735.41;5028305;27;96920;-70
2023/12/31 03:50:39;;;;;;;10.05;2.85;;;;;;;10.27;74.56;100739.44;5022114;27;98925;-69
2023/12/31 03:53:07;;;;;;;9.80;3.30;;;;;;;10.23;74.95;100738.69;5020772;27;98793;-69
2023/12/31 03:55:33;;;;;;;11.25;3.72;;;;;;;10.16;75.35;100737.13;5023776;27;96778;-71
2023/12/31 03:58:00;;;;;;;8.13;2.55;;;;;;;10.04;75.66;100728.75;5021777;27;97379;-70
2023/12/31 04:00:26;;;;;;;10.10;2.83;;;;;;;10.02;75.77;100727.94;5024072;27;100671;-70
2023/12/31 04:02:52;;;;;;;6.85;3.00;;;;;;;9.87;76.17;100713.47;5023460;27;98934;-69
2023/12/31 04:05:19;;;;;;;9.20;2.55;;;;;;;9.84;76.06;100716.22;5022096;27;96731;-70
2023/12/31 04:07:45;;;;;;;9.25;2.75;;;;;;;9.76;76.76;100721.75;5023429;27;96731;-71
2023/12/31 04:10:13;;;;;;;8.70;3.10;;;;;;;9.59;77.11;100724.03;5025817;27;99624;-69
2023/12/31 04:12:39;;;;;;;12.32;3.50;;;;;;;9.71;77.22;100723.69;5025660;27;99231;-70
2023/12/31 04:15:08;;;;;;;16.05;3.05;;;;;;;9.56;77.21;100717.09;5029254;27;96817;-69
2023/12/31 04:17:34;;;;;;;10.20;3.20;;;;;;;9.53;77.50;100714.56;5027517;27;96769;-69
2023/12/31 04:20:01;;;;;;;14.23;3.28;;;;;;;9.60;77.40;100710.81;5026894;27;99002;-69
2023/12/31 04:22:27;;;;;;;12.52;3.38;;;;;;;9.59;77.45;100703.81;5023551;27;98772;-70
2023/12/31 04:24:54;;;;;;;8.43;3.20;;;;;;;9.71;77.33;100705.19;5033347;27;96922;-70
2023/12/31 04:27:21;;;;;;;10.10;3.80;;;;;;;9.72;77.02;100698.13;5027110;27;100485;-69
2023/12/31 04:29:48;;;;;;;6.55;3.30;;;;;;;9.76;76.68;100689.22;5031294;27;99085;-70
2023/12/31 04:32:14;;;;;;;8.45;2.92;;;;;;;9.72;76.93;100691.06;5028186;27;100397;-69
2023/12/31 04:34:40;;;;;;;9.20;3.63;;;;;;;9.81;76.87;100684.63;5031237;27;97372;-68
2023/12/31 04:37:07;;;;;;;11.38;3.50;;;;;;;9.70;77.16;100682.38;5030750;27;96735;-69
2023/12/31 04:39:33;;;;;;;11.40;3.33;;;;;;;9.83;76.39;100683.69;5029394;27;99563;-69
2023/12/31 04:42:03;;;;;;;10.88;3.22;;;;;;;9.89;76.03;100683.47;5028108;27;98081;-68
2023/12/31 04:44:31;;;;;;;7.80;3.38;;;;;;;9.93;76.20;100677.16;5020107;27;98504;-68
2023/12/31 04:46:57;;;;;;;8.45;3.08;;;;;;;9.91;75.33;100680.78;5032448;27;96806;-70
2023/12/31 04:49:23;;;;;;;9.10;3.15;;;;;;;9.78;75.89;100682.94;5026939;27;99290;-69
2023/12/31 04:51:50;;;;;;;7.68;2.88;;;;;;;9.95;75.80;100679.75;5021819;27;98736;-70
2023/12/31 04:54:16;;;;;;;10.35;3.17;;;;;;;9.85;76.12;100673.91;5030769;27;96862;-70
2023/12/31 04:56:43;;;;;;;10.20;3.22;;;;;;;9.92;76.00;100678.09;5020669;27;97257;-70
2023/12/31 04:59:09;;;;;;;12.07;3.03;;;;;;;9.93;76.11;100660.47;5028920;27;99038;-70
2023/12/31 05:01:37;;;;;;;12.85;3.30;;;;;;;9.82;76.37;100658.22;5027486;27;98119;-69
2023/12/31 05:04:04;;;;;;;6.35;3.20;;;;;;;9.71;76.87;100657.72;5026776;27;96753;-69
2023/12/31 05:06:30;;;;;;;13.27;3.85;;;;;;;9.98;76.17;100659.38;5028803;27;97376;-69
2023/12/31 05:08:57;;;;;;;9.07;3.10;;;;;;;9.87;76.39;100655.41;5026888;27;99375;-68
2023/12/31 05:11:25;;;;;;;12.30;3.10;;;;;;;9.93;75.87;100653.41;5025329;27;98807;-68
2023/12/31 05:13:54;;;;;;;11.85;3.30;;;;;;;9.93;75.37;100645.50;5031081;27;96936;-68
2023/12/31 05:16:20;;;;;;;10.32;3.38;;;;;;;10.04;75.55;100641.63;5027258;27;96940;-69
2023/12/31 05:18:50;;;;;;;8.30;3.03;;;;;;;9.89;75.97;100648.31;5020323;27;99223;-69
2023/12/31 05:21:18;;;;;;;12.82;4.07;;;;;;;10.07;75.46;100642.38;5022532;27;96798;-69
2023/12/31 05:23:44;;;;;;;10.88;3.00;;;;;;;10.04;75.81;100639.88;5024017;27;96675;-70
2023/12/31 05:26:11;;;;;;;6.15;2.80;;;;;;;9.91;76.08;100644.69;5023285;27;97365;-69
2023/12/31 05:28:37;;;;;;;9.45;2.67;;;;;;;9.85;76.23;100639.59;5025867;27;99470;-69
2023/12/31 05:31:04;;;;;;;10.32;2.90;;;;;;;9.84;76.59;100642.31;5027998;27;97985;-69
2023/12/31 05:33:30;;;;;;;5.65;3.13;;;;;;;9.75;76.93;100640.00;5025411;27;96876;-70
2023/12/31 05:35:58;;;;;;;8.07;2.80;;;;;;;9.92;76.26;100627.94;5022877;27;96811;-69
2023/12/31 05:38:25;;;;;;;7.85;3.00;;;;;;;10.13;75.66;100630.75;5025628;27;98345;-69
2023/12/31 05:40:51;;;;;;;9.45;3.58;;;;;;;10.10;75.58;100615.88;5029642;27;100458;-70
2023/12/31 05:43:17;;;;;;;7.40;2.80;;;;;;;10.22;74.85;100622.53;5022831;27;97831;-70
2023/12/31 05:45:44;;;;;;;10.40;2.80;;;;;;;10.08;75.33;100623.00;5027087;27;96976;-70
2023/12/31 05:48:10;;;;;;;9.00;2.85;;;;;;;10.26;74.60;100625.00;5027418;27;99011;-70
2023/12/31 05:50:37;;;;;;;6.72;3.25;;;;;;;10.20;74.57;100633.16;5024681;27;98910;-70
2023/12/31 05:53:04;;;;;;;9.25;2.85;;;;;;;10.27;74.43;100621.44;5027801;27;97689;-70
2023/12/31 05:55:31;;;;;;;8.82;2.85;;;;;;;10.10;74.80;100617.66;5018570;27;96781;-70
2023/12/31 05:57:58;;;;;;;11.75;3.50;;;;;;;10.21;74.49;100595.25;5017855;27;99091;-70
2023/12/31 06:00:24;;;;;;;12.05;2.90;;;;;;;10.11;74.96;100588.53;5024505;27;98783;-71
2023/12/31 06:02:51;;;;;;;8.05;2.90;;;;;;;10.11;74.63;100596.47;5027231;27;97257;-70
2023/12/31 06:05:18;;;;;;;10.15;2.97;;;;;;;10.06;74.69;100595.78;5022519;27;97554;-70
2023/12/31 06:07:45;;;;;;;8.75;2.92;;;;;;;10.16;74.58;100594.53;5014868;27;99279;-70
2023/12/31 06:10:12;;;;;;;8.13;3.00;;;;;;;10.25;73.85;100598.63;5020431;27;97671;-70
2023/12/31 06:12:39;;;;;;;8.20;2.80;;;;;;;10.26;73.75;100592.44;5020678;27;96772;-70
2023/12/31 06:15:07;;;;;;;6.88;2.47;;;;;;;10.37;73.76;100591.13;5021156;27;96800;-70
2023/12/31 06:17:34;;;;;;;8.65;2.47;;;;;;;10.14;74.13;100592.88;5029911;27;98863;-70
2023/12/31 06:20:01;;;;;;;7.07;2.42;;;;;;;10.32;73.79;100582.50;5016949;27;99346;-70
2023/12/31 06:22:28;;;;;;;10.48;3.08;;;;;;;10.13;74.23;100581.44;5017676;27;96909;-70
2023/12/31 06:24:54;;;;;;;9.00;2.65;;;;;;;10.04;74.53;100594.13;5023927;27;97270;-71
2023/12/31 06:27:21;;;;;;;13.00;3.08;;;;;;;9.82;75.45;100586.09;5026635;27;102403;-70
2023/12/31 06:29:48;;;;;;;11.02;3.05;;;;;;;9.89;75.31;100598.16;5028166;27;98979;-70
2023/12/31 06:32:15;;;;;;;12.65;2.92;;;;;;;9.98;74.81;100601.31;5024697;27;97095;-70
2023/12/31 06:34:41;;;;;;;10.07;2.63;;;;;;;10.06;74.91;100592.25;5031498;28;96970;-70
2023/12/31 06:37:07;;;;;;;9.23;2.88;;;;;;;10.07;74.55;100596.63;5021921;27;98210;-70
2023/12/31 06:39:34;;;;;;;9.43;3.05;;;;;;;9.93;75.21;100597.97;5028018;27;98556;-70
2023/12/31 06:42:00;;;;;;;10.57;2.72;;;;;;;10.07;74.53;100586.94;5016599;27;97037;-67
2023/12/31 06:44:29;;;;;;;8.75;3.08;;;;;;;10.17;74.09;100591.03;5022324;27;96794;-68
2023/12/31 06:46:56;;;;;;;6.07;2.63;;;;;;;9.93;74.76;100587.44;5020334;27;98912;-68
2023/12/31 06:49:23;;;;;;;9.98;2.55;;;;;;;10.16;74.32;100593.69;5022079;27;99121;-69
2023/12/31 06:51:49;;;;;;;9.52;2.92;;;;;;;10.14;73.84;100590.22;5026467;27;97438;-70
2023/12/31 06:54:16;;;;;;;8.43;2.78;;;;;;;10.13;73.60;100592.00;5012468;27;97606;-67
2023/12/31 06:56:42;;;;;;;5.45;2.40;;;;;;;10.02;73.85;100593.31;5018682;27;98988;-68
2023/12/31 06:59:08;;;;;;;8.70;2.53;;;;;;;10.37;72.41;100582.38;5029522;27;99175;-68
2023/12/31 07:01:36;;;;;;;8.43;2.35;;;;;;;10.28;72.71;100580.06;5029646;27;97201;-69
2023/12/31 07:04:03;;;;;;;9.98;2.55;;;;;;;10.26;72.88;100576.59;5028871;27;96909;-69
2023/12/31 07:06:29;;;;;;;5.07;2.53;;;;;;;10.21;72.35;100575.91;5023800;27;99411;-69
2023/12/31 07:08:55;;;;;;;9.10;2.80;;;;;;;10.46;71.69;100575.84;5024054;27;97829;-69
2023/12/31 07:11:22;;;;;;;8.20;2.25;;;;;;;10.45;72.16;100569.72;5021072;27;96769;-69
2023/12/31 07:13:48;;;;;;;5.35;2.72;;;;;;;10.28;72.22;100562.44;5027848;27;97246;-68
2023/12/31 07:16:15;;;;;;;6.57;2.78;;;;;;;10.34;71.95;100566.63;5017662;27;99438;-70
2023/12/31 07:18:43;;;;;;;6.97;2.45;;;;;;;10.31;72.17;100556.16;5025393;27;99032;-68
2023/12/31 07:21:09;;;;;;;7.47;2.30;;;;;;;10.31;72.41;100564.06;5019964;27;96678;-68
2023/12/31 07:23:36;;;;;;;4.68;2.50;;;;;;;9.92;73.79;100561.09;5030686;27;96872;-69
2023/12/31 07:26:03;;;;;;;7.55;2.47;;;;;;;10.03;73.54;100544.88;5029987;28;101470;-68
2023/12/31 07:28:30;;;;;;;3.92;2.03;;;;;;;10.18;72.75;100553.09;5023080;27;98777;-68
2023/12/31 07:30:56;;;;;;;5.82;2.70;;;;;;;10.39;72.32;100551.44;5029663;27;96743;-68
2023/12/31 07:33:22;;;;;;;6.72;2.42;;;;;;;10.20;72.29;100550.41;5025566;27;98004;-68
2023/12/31 07:35:50;;;;;;;7.88;2.58;;;;;;;10.37;72.52;100551.50;5023650;27;99341;-67
2023/12/31 07:38:16;;;;;;;7.10;2.35;;;;;;;10.24;72.65;100534.41;5027626;27;98837;-68
2023/12/31 07:40:43;;;;;;;7.20;1.92;;;;;;;10.26;72.69;100537.84;5019277;27;97031;-69
2023/12/31 07:43:09;;;;;;;4.47;1.98;;;;;;;10.22;72.56;100538.03;5027516;27;96863;-75
2023/12/31 07:45:35;;;;;;;7.47;2.13;;;;;;;10.24;72.45;100533.56;5026852;27;98398;-74
2023/12/31 07:48:03;;;;;;;6.88;1.95;;;;;;;10.48;71.35;100539.69;5019838;27;101433;-74
2023/12/31 07:50:30;;;;;;;5.40;1.73;;;;;;;10.55;71.41;100539.41;5026650;27;97185;-74
2023/12/31 07:52:59;;;;;;;6.47;2.33;;;;;;;10.66;70.61;100544.25;5027384;27;96839;-74
2023/12/31 07:55:25;;;;;;;4.82;1.83;;;;;;;10.49;70.95;100539.63;5024780;27;100610;-74
2023/12/31 07:57:52;;;;;;;6.10;2.28;;;;;;;10.53;70.75;100541.22;5033272;27;101682;-74
2023/12/31 08:00:19;;;;;;;6.60;2.20;;;;;;;10.56;70.95;100548.19;5018593;27;98135;-74
2023/12/31 08:02:46;;;;;;;5.88;2.38;;;;;;;10.51;71.00;100545.69;5037145;27;98537;-74
2023/12/31 08:05:12;;;;;;;7.25;2.20;;;;;;;10.50;70.85;100543.97;5029668;27;100056;-73
2023/12/31 08:07:38;;;;;;;6.20;1.67;;;;;;;10.26;71.83;100534.34;5016631;27;99183;-74
2023/12/31 08:10:07;;;;;;;7.05;2.00;;;;;;;10.32;71.84;100526.19;5024611;27;98373;-74
2023/12/31 08:12:34;;;;;;;7.32;2.47;;;;;;;10.40;71.01;100524.13;5016156;27;96922;-73
2023/12/31 08:15:00;;;;;;;5.57;1.80;;;;;;;10.35;71.37;100526.09;5015982;27;98713;-74
2023/12/31 08:17:27;;;;;;;6.72;2.13;;;;;;;10.54;70.60;100526.25;5031625;27;99602;-73
2023/12/31 08:19:53;;;;;;;6.13;2.25;;;;;;;10.61;70.82;100528.59;5024146;27;96801;-74
2023/12/31 08:22:19;;;;;;;6.13;1.95;;;;;;;10.73;70.59;100524.59;5026510;27;96815;-73
2023/12/31 08:24:46;;;;;;;7.35;1.95;;;;;;;10.84;70.04;100524.16;5019560;27;99019;-74
2023/12/31 08:27:13;;;;;;;6.32;2.03;;;;;;;10.85;69.86;100520.59;5020084;27;99189;-73
2023/12/31 08:29:40;;;;;;;3.53;1.80;;;;;;;10.92;69.71;100522.06;5017665;27;97572;-74
2023/12/31 08:32:06;;;;;;;6.38;1.92;;;;;;;11.03;69.59;100531.28;5031577;27;97147;-75
2023/12/31 08:34:33;;;;;;;6.00;2.10;;;;;;;10.75;69.46;100526.28;5030303;27;101289;-74
2023/12/31 08:36:59;;;;;;;4.88;2.10;;;;;;;10.95;69.26;100516.69;5026792;27;98822;-73
2023/12/31 08:39:26;;;;;;;3.58;1.77;;;;;;;10.88;69.45;100510.78;5016969;27;101875;-74
2023/12/31 08:41:53;;;;;;;5.70;2.13;;;;;;;11.04;68.47;100521.56;5015852;27;96768;-69
2023/12/31 08:44:22;;;;;;;6.65;2.10;;;;;;;11.08;68.22;100508.19;5031201;27;97584;-70
2023/12/31 08:46:49;;;;;;;4.40;1.70;;;;;;;10.96;68.87;100513.13;5031199;27;99094;-69
2023/12/31 08:49:15;;;;;;;4.47;2.00;;;;;;;11.06;68.71;100525.03;5021772;27;97983;-70
2023/12/31 08:51:42;;;;;;;5.47;2.13;;;;;;;11.17;68.27;100510.44;5028262;27;97359;-70
2023/12/31 08:54:08;;;;;;;6.85;2.08;;;;;;;11.16;67.56;100507.84;5026209;27;99054;-68
2023/12/31 08:56:38;;;;;;;5.95;2.97;;;;;;;11.12;68.13;100506.25;5021706;27;98803;-68
2023/12/31 08:59:04;;;;;;;4.13;2.40;;;;;;;11.31;67.61;100509.00;5023192;27;97983;-69
2023/12/31 09:01:32;;;;;;;6.03;1.75;;;;;;;11.37;67.03;100514.88;5014497;27;97126;-69
2023/12/31 09:03:59;;;;;;;5.72;2.05;;;;;;;11.37;67.17;100501.66;5018091;27;99286;-68
2023/12/31 09:06:25;;;;;;;6.93;2.03;;;;;;;11.43;66.52;100501.41;5014020;27;99240;-69
2023/12/31 09:08:52;;;;;;;4.38;1.80;;;;;;;11.31;67.22;100501.06;5017486;27;99879;-68
2023/12/31 09:11:19;;;;;;;6.25;2.83;;;;;;;11.21;67.82;100503.25;5014704;27;97161;-68
2023/12/31 09:13:46;;;;;;;4.82;2.05;;;;;;;11.23;67.61;100501.38;5026051;27;99160;-70
2023/12/31 09:16:12;;;;;;;5.10;1.95;;;;;;;11.30;67.54;100500.19;5029951;27;99223;-70
2023/12/31 09:18:40;;;;;;;5.57;2.35;;;;;;;11.18;67.69;100500.72;5031326;27;96724;-70
2023/12/31 09:21:07;;;;;;;6.63;1.80;;;;;;;11.03;68.34;100501.34;5024803;27;97255;-70
2023/12/31 09:23:36;;;;;;;3.40;2.22;;;;;;;10.83;68.83;100486.28;5023559;27;97979;-69
2023/12/31 09:26:03;;;;;;;6.72;2.35;;;;;;;10.97;69.10;100496.31;5031471;27;101158;-69
2023/12/31 09:28:30;;;;;;;4.18;2.13;;;;;;;11.08;68.72;100480.88;5029131;27;96903;-69
2023/12/31 09:30:57;;;;;;;7.00;2.45;;;;;;;11.15;68.55;100492.94;5030796;27;99321;-71
2023/12/31 09:33:23;;;;;;;3.38;1.98;;;;;;;11.38;67.26;100484.00;5029790;27;102238;-69
2023/12/31 09:35:51;;;;;;;5.22;2.20;;;;;;;11.41;67.43;100490.03;5029617;27;101552;-70
2023/12/31 09:38:17;;;;;;;5.97;2.13;;;;;;;11.51;66.92;100486.06;5024190;27;98646;-69
2023/12/31 09:40:43;;;;;;;;;;;;;;;11.37;67.06;100488.44;5022478;27;96890;-69
2023/12/31 09:43:11;;;;;;;5.93;2.22;;;;;;;11.42;67.26;100475.84;5027962;27;100839;-69
2023/12/31 09:45:37;;;;;;;7.45;2.20;;;;;;;11.29;67.71;100476.47;5026643;27;99146;-69
2023/12/31 09:48:05;;;;;;;4.47;2.10;;;;;;;10.99;69.06;100460.97;5029889;27;96749;-69
2023/12/31 09:50:33;;;;;;;7.30;2.38;;;;;;;11.11;69.11;100457.81;5019491;27;102544;-70
2023/12/31 09:53:02;;;;;;;7.05;2.28;;;;;;;11.34;68.15;100461.25;5024911;27;98117;-68
2023/12/31 09:55:31;;;;;;;4.07;2.15;;;;;;;11.40;67.95;100453.06;5031780;27;99209;-68
2023/12/31 09:57:59;;;;;;;5.80;2.25;;;;;;;11.42;68.06;100444.09;5026744;27;97247;-69
2023/12/31 10:00:25;;;;;;;3.83;2.60;;;;;;;11.27;68.13;100441.28;5029666;27;97238;-68
2023/12/31 10:02:52;;;;;;;4.30;1.90;;;;;;;11.19;68.58;100442.47;5018876;27;102536;-69
2023/12/31 10:05:21;;;;;;;7.57;2.42;;;;;;;11.17;68.86;100430.22;5026724;27;98991;-70
2023/12/31 10:07:48;;;;;;;5.88;1.95;;;;;;;11.34;68.36;100422.44;5027569;27;97778;-70
2023/12/31 10:10:18;;;;;;;7.55;2.45;;;;;;;11.41;67.80;100418.59;5019127;27;96782;-70
2023/12/31 10:12:44;;;;;;;5.00;2.22;;;;;;;11.33;68.09;100410.13;5023374;27;99867;-70
2023/12/31 10:15:11;;;;;;;7.43;2.47;;;;;;;11.35;68.18;100405.66;5022440;27;99006;-70
2023/12/31 10:17:38;;;;;;;6.47;2.42;;;;;;;11.53;67.59;100398.69;5022227;27;97979;-70
2023/12/31 10:20:07;;;;;;;7.07;2.50;;;;;;;11.21;68.68;100393.94;5030416;27;98987;-70
2023/12/31 10:22:35;;;;;;;9.27;2.50;;;;;;;11.22;68.90;100387.75;5020910;27;100382;-70
2023/12/31 10:25:16;;;;;;;6.72;2.90;;;;;;;11.10;68.99;100379.38;5017887;27;98990;-72
2023/12/31 10:27:46;;;;;;;4.68;2.38;;;;;;;11.04;69.79;100369.09;5023281;27;98607;-70
2023/12/31 10:30:13;;;;;;;5.28;2.40;;;;;;;11.07;70.16;100368.09;5027034;27;97280;-70
2023/12/31 10:32:40;;;;;;;8.48;2.63;;;;;;;10.99;69.77;100359.63;5021671;27;97962;-70
2023/12/31 10:35:07;;;;;;;4.63;2.60;;;;;;;11.17;69.20;100356.19;5023930;27;98824;-71
2023/12/31 10:37:34;;;;;;;5.60;2.20;;;;;;;11.21;69.11;100344.56;5026463;27;97806;-70
2023/12/31 10:40:18;;;;;;;6.03;2.55;;;;;;;11.27;69.66;100333.72;5023205;27;97360;-72
2023/12/31 10:42:48;;;;;;;7.28;2.70;;;;;;;11.55;68.45;100331.50;5017474;27;99401;-71
2023/12/31 10:45:15;;;;;;;5.93;3.05;;;;;;;11.46;68.69;100339.88;5015939;27;101146;-70
2023/12/31 10:47:45;;;;;;;5.57;1.90;;;;;;;11.41;68.62;100319.88;5024466;27;96717;-70
2023/12/31 10:50:15;;;;;;;6.13;2.17;;;;;;;11.63;67.61;100319.72;5029763;27;98191;-70
2023/12/31 10:52:44;;;;;;;3.22;2.30;;;;;;;11.64;67.66;100314.34;5027666;27;98071;-70
2023/12/31 10:55:13;;;;;;;5.28;2.00;;;;;;;11.55;67.54;100302.41;5027283;28;101263;-69
2023/12/31 10:57:42;;;;;;;4.28;1.88;;;;;;;11.68;67.32;100296.56;5028244;27;96922;-70
2023/12/31 11:00:11;;;;;;;4.82;2.10;;;;;;;11.76;66.60;100299.72;5020744;27;97483;-70
2023/12/31 11:02:38;;;;;;;7.97;2.60;;;;;;;11.82;66.02;100287.03;5023950;27;98990;-70
2023/12/31 11:05:07;;;;;;;5.95;2.05;;;;;;;11.80;66.31;100281.00;5017330;27;98790;-70
2023/12/31 11:07:35;;;;;;;8.43;2.00;;;;;;;11.71;66.40;100291.97;5028614;27;97240;-70
2023/12/31 11:10:02;;;;;;;5.68;2.30;;;;;;;11.92;66.08;100282.19;5022675;27;98306;-71
2023/12/31 11:12:29;;;;;;;4.57;2.10;;;;;;;12.10;65.33;100291.88;5026423;27;99167;-70
2023/12/31 11:15:02;;;;;;;8.25;2.28;;;;;;;12.29;64.47;100284.72;5025814;27;99727;-70
2023/12/31 11:17:54;;;;;;;4.93;2.22;;;;;;;12.44;63.70;100264.56;5026379;27;97694;-71
2023/12/31 11:20:36;;;;;;;6.18;1.75;;;;;;;12.23;64.45;100258.56;5021058;27;96768;-70
2023/12/31 11:23:09;;;;;;;4.53;2.25;;;;;;;12.37;64.12;100252.56;5027247;27;98127;-70